Legend Of The Seas — C6SL5 — position and weather

sailwx.info

Track history (hours):
 
Tides and Currents Weather Stations Pressure Air Temp Water Temp Dewpoint Dewpoint Depression Visibility Wind Speed Wind Dir Waves Ship Positions

Legend Of The Seas

Operator: Royal Caribbean Cruises Ltd

Last reported at 2017-Sep-22 02:00 UTC. Time now 2017-Sep-22 06:18 UTC.
Position N 36°31' W 008°18'.

Type: Passenger vessel. MMSI: 311378000.

Date/timePositionNaut miles runAvg speedWind from/ knotsBaromVisibWave heightAir tempDewpointWater temp
2017-Sep-22 02:00N 36°31' W 008°18'919.3
2017-Sep-22 01:30N 36°29' W 008°29'1119.7
2017-Sep-22 00:56N 36°31' W 008°43'819.6
2017-Sep-22 00:30N 36°31' W 008°54'1419.5
2017-Sep-21 23:46N 36°31' W 009°11'519.4
2017-Sep-21 23:30N 36°33' W 009°18'1619.2
2017-Sep-21 22:39N 36°44' W 009°32'720.0
2017-Sep-21 22:19N 36°51' W 009°35'620.6
2017-Sep-21 22:01N 36°57' W 009°36'1619.9
2017-Sep-21 21:12N 37°13' W 009°34'819.8
2017-Sep-21 20:48N 37°21' W 009°33'619.8
2017-Sep-21 20:31N 37°26' W 009°33'1020.0
2017-Sep-21 20:01N 37°36' W 009°32'1020.4
2017-Sep-21 19:31N 37°47' W 009°31'1020.5
2017-Sep-21 19:01N 37°57' W 009°29'1020.1
2017-Sep-21 18:31N 38°07' W 009°28'1020.1
2017-Sep-21 18:01N 38°17' W 009°27'1020.3
2017-Sep-21 17:31N 38°27' W 009°25'918.2
2017-Sep-21 17:00N 38°36' W 009°23'917.1
2017-Sep-21 16:30N 38°41' W 009°15'611.5
2017-Sep-21 16:00N 38°42' W 009°07'0 0.6
2017-Sep-21 15:30N 38°43' W 009°08'0 0.0
2017-Sep-21 15:00N 38°43' W 009°08'0 0.0
2017-Sep-21 14:30N 38°43' W 009°08'0 0.0
2017-Sep-21 14:00N 38°43' W 009°08'0 0.0
2017-Sep-21 13:30N 38°43' W 009°08'0 0.0
2017-Sep-21 13:00N 38°43' W 009°08'0 0.0
2017-Sep-21 12:30N 38°43' W 009°08'0 0.0
2017-Sep-21 12:00N 38°43' W 009°08'0 0.0
2017-Sep-21 11:30N 38°43' W 009°08'0 0.0
2017-Sep-21 11:00N 38°43' W 009°08'0 0.0
2017-Sep-21 10:30N 38°43' W 009°08'0 0.0
2017-Sep-21 10:00N 38°43' W 009°08'0 0.0
2017-Sep-21 09:27N 38°43' W 009°08'0 0.0
2017-Sep-21 09:00N 38°43' W 009°08'0 0.0
2017-Sep-21 08:30N 38°43' W 009°08'0 0.0
2017-Sep-21 08:00N 38°43' W 009°08'0 0.0
2017-Sep-21 07:30N 38°43' W 009°08'0 0.0
2017-Sep-21 07:00N 38°43' W 009°08'0 0.3
2017-Sep-21 06:30N 38°42' W 009°08'4 8.4
2017-Sep-21 06:00N 38°41' W 009°13'4 7.6
2017-Sep-21 05:31N 38°41' W 009°18'612.2
2017-Sep-21 05:00N 38°37' W 009°24'713.7
2017-Sep-21 04:30N 38°36' W 009°32'713.1
2017-Sep-21 04:00N 38°37' W 009°41'713.5
2017-Sep-21 03:30N 38°44' W 009°42'714.2
2017-Sep-21 03:00N 38°51' W 009°43'713.9
2017-Sep-21 02:30N 38°57' W 009°44'713.9
2017-Sep-21 02:00N 39°04' W 009°45'714.1
2017-Sep-21 01:30N 39°11' W 009°47'713.6
2017-Sep-21 01:00N 39°18' W 009°46'713.8
2017-Sep-21 00:30N 39°24' W 009°43'714.4
2017-Sep-21 00:00N 39°32' W 009°42'715.0
2017-Sep-20 23:31N 39°39' W 009°40'4414.4
2017-Sep-20 20:26N 40°20' W 009°18'1119.3
2017-Sep-20 19:54N 40°30' W 009°13'719.2
2017-Sep-20 19:30N 40°36' W 009°09'25 1.7
2017-Sep-20 04:23N 41°01' W 009°06'89 2.8
2017-Sep-18 20:13N 39°38' W 009°47'418.9
2017-Sep-18 19:59N 39°34' W 009°49'918.6
2017-Sep-18 19:30N 39°25' W 009°51'918.8
2017-Sep-18 19:00N 39°16' W 009°51'919.0
2017-Sep-18 18:30N 39°07' W 009°50'919.0
2017-Sep-18 18:00N 38°57' W 009°49'918.3
2017-Sep-18 17:30N 38°48' W 009°50'918.2
2017-Sep-18 17:00N 38°39' W 009°49'918.4
2017-Sep-18 16:31N 38°31' W 009°44'918.3
2017-Sep-18 16:00N 38°22' W 009°43'918.7
2017-Sep-18 15:30N 38°13' W 009°38'918.5
2017-Sep-18 15:00N 38°04' W 009°36'918.2
2017-Sep-18 14:30N 37°55' W 009°33'918.3
2017-Sep-18 14:00N 37°46' W 009°31'5118.5
2017-Sep-18 11:16N 36°56' W 009°19'518.8
2017-Sep-18 11:00N 36°52' W 009°16'1018.7
2017-Sep-18 10:27N 36°45' W 009°06'919.1
2017-Sep-18 09:59N 36°42' W 008°55'918.9
2017-Sep-18 09:30N 36°40' W 008°45'1019.1
2017-Sep-18 09:00N 36°36' W 008°33'2219.0
2017-Sep-18 07:49N 36°30' W 008°06'919.2
2017-Sep-18 07:20N 36°28' W 007°55'11418.4
2017-Sep-18 01:09N 35°58' W 005°39'318.2
2017-Sep-18 01:00N 35°59' W 005°36'917.3
2017-Sep-18 00:30N 36°01' W 005°26'816.9
2017-Sep-18 00:00N 36°05' W 005°16'918.6
2017-Sep-17 23:30N 36°10' W 005°06'215 6.7
2017-Sep-16 15:16N 37°35' W 000°59'1 1.8
2017-Sep-16 14:59N 37°36' W 000°59'0 0.0
2017-Sep-16 05:29N 37°36' W 000°59'2 3.8
2017-Sep-16 05:00N 37°34' W 000°60'611.9
2017-Sep-16 04:30N 37°30' W 000°54'612.8
2017-Sep-16 04:00N 37°31' W 000°46'713.2
2017-Sep-16 03:31N 37°33' W 000°38'612.6
2017-Sep-16 03:00N 37°37' W 000°32'713.3
2017-Sep-16 02:30N 37°42' W 000°28'612.9
2017-Sep-16 02:00N 37°48' W 000°24'612.7
2017-Sep-16 01:30N 37°53' W 000°19'612.7
2017-Sep-16 01:00N 37°58' W 000°15'141 5.6
2017-Sep-14 23:39N 40°10' E 000°49'315.2
2017-Sep-14 23:27N 40°12' E 000°53'715.1
2017-Sep-14 23:00N 40°16' E 000°60'715.0
2017-Sep-14 22:30N 40°20' E 001°08'814.9
2017-Sep-14 22:00N 40°25' E 001°16'715.0
2017-Sep-14 21:30N 40°30' E 001°22'815.1
2017-Sep-14 21:00N 40°35' E 001°30'715.0
2017-Sep-14 20:30N 40°40' E 001°37'815.2
2017-Sep-14 20:00N 40°46' E 001°43'815.5
2017-Sep-14 19:30N 40°52' E 001°49'815.3
2017-Sep-14 19:00N 40°58' E 001°56'715.0
2017-Sep-14 18:30N 41°05' E 002°01'714.8
2017-Sep-14 18:00N 41°10' E 002°07'813.7
2017-Sep-14 17:28N 41°17' E 002°11'4 0.4
2017-Sep-14 07:49N 41°22' E 002°11'0 0.6
2017-Sep-14 07:28N 41°22' E 002°11'4 7.5
2017-Sep-14 07:00N 41°18' E 002°11'612.4
2017-Sep-14 06:30N 41°17' E 002°19'1019.2
2017-Sep-14 06:00N 41°21' E 002°30'1120.8
2017-Sep-14 05:27N 41°26' E 002°44'920.6
2017-Sep-14 05:00N 41°29' E 002°56'5418.9
2017-Sep-14 02:10N 41°52' E 004°01'319.0
2017-Sep-14 01:59N 41°54' E 004°05'918.3
2017-Sep-14 01:30N 41°58' E 004°16'5718.5
2017-Sep-13 22:23N 42°22' E 005°26'818.7
2017-Sep-13 21:59N 42°25' E 005°35'1618.9
2017-Sep-13 21:06N 42°32' E 005°56'419.2
2017-Sep-13 20:55N 42°34' E 006°00'919.2
2017-Sep-13 20:28N 42°37' E 006°11'1119.3
2017-Sep-13 19:55N 42°42' E 006°24'1519.2
2017-Sep-13 19:07N 42°50' E 006°42'219.5
2017-Sep-13 19:00N 42°51' E 006°44'1719.0
2017-Sep-13 18:08N 43°02' E 007°01'218.8
2017-Sep-13 18:00N 43°04' E 007°03'918.8
2017-Sep-13 17:30N 43°11' E 007°12'1019.2
2017-Sep-13 17:00N 43°17' E 007°22'1019.5
2017-Sep-13 16:30N 43°24' E 007°32'1019.4
2017-Sep-13 16:00N 43°31' E 007°39'1719.5
2017-Sep-13 15:09N 43°47' E 007°48'2 0.2
2017-Sep-13 04:25N 43°49' E 007°48'8 9.9
2017-Sep-13 03:34N 43°40' E 007°45'614.5
2017-Sep-13 03:11N 43°35' E 007°43'513.8
2017-Sep-13 02:49N 43°31' E 007°40'414.3
2017-Sep-13 02:30N 43°28' E 007°35'813.9
2017-Sep-13 01:57N 43°22' E 007°28'613.4
2017-Sep-13 01:31N 43°18' E 007°22'713.5
2017-Sep-13 01:01N 43°13' E 007°15'713.5
2017-Sep-13 00:30N 43°09' E 007°08'713.8
2017-Sep-13 00:00N 43°04' E 007°01'6012.1
2017-Sep-12 19:05N 42°58' E 005°40'513.1
2017-Sep-12 18:40N 43°00' E 005°33'313.2
2017-Sep-12 18:27N 43°02' E 005°30'613.1
2017-Sep-12 18:00N 43°04' E 005°22'612.2
2017-Sep-12 17:30N 43°09' E 005°18'612.5
2017-Sep-12 17:01N 43°15' E 005°18'5 9.5
2017-Sep-12 16:30N 43°20' E 005°19'1 0.1
2017-Sep-12 06:56N 43°21' E 005°20'0 0.8
2017-Sep-12 06:26N 43°21' E 005°20'3 7.7
2017-Sep-12 06:00N 43°19' E 005°15'714.8
2017-Sep-12 05:30N 43°14' E 005°08'816.4
2017-Sep-12 05:00N 43°07' E 005°02'816.4
2017-Sep-12 04:31N 43°01' E 004°56'816.1
2017-Sep-12 04:01N 42°54' E 004°49'816.3
2017-Sep-12 03:30N 42°48' E 004°42'815.9
2017-Sep-12 03:01N 42°43' E 004°34'917.8
2017-Sep-12 02:31N 42°36' E 004°27'  
Track history (hours):
 
Tides and Currents Weather Stations Pressure Air Temp Water Temp Dewpoint Dewpoint Depression Visibility Wind Speed Wind Dir Waves Ship Positions

Legend Of The Seas

Operator: Royal Caribbean Cruises Ltd

Last reported at 2017-Sep-22 02:00 UTC. Time now 2017-Sep-22 06:18 UTC.
Position N 36°31' W 008°18'.

Type: Passenger vessel. MMSI: 311378000.

Date/timePositionNaut miles runAvg speedWind from/ knotsBaromVisibWave heightAir tempDewpointWater temp
2017-Sep-22 02:00N 36°31' W 008°18'919.3
2017-Sep-22 01:30N 36°29' W 008°29'1119.7
2017-Sep-22 00:56N 36°31' W 008°43'819.6
2017-Sep-22 00:30N 36°31' W 008°54'1419.5
2017-Sep-21 23:46N 36°31' W 009°11'519.4
2017-Sep-21 23:30N 36°33' W 009°18'1619.2
2017-Sep-21 22:39N 36°44' W 009°32'720.0
2017-Sep-21 22:19N 36°51' W 009°35'620.6
2017-Sep-21 22:01N 36°57' W 009°36'1619.9
2017-Sep-21 21:12N 37°13' W 009°34'819.8
2017-Sep-21 20:48N 37°21' W 009°33'619.8
2017-Sep-21 20:31N 37°26' W 009°33'1020.0
2017-Sep-21 20:01N 37°36' W 009°32'1020.4
2017-Sep-21 19:31N 37°47' W 009°31'1020.5
2017-Sep-21 19:01N 37°57' W 009°29'1020.1
2017-Sep-21 18:31N 38°07' W 009°28'1020.1
2017-Sep-21 18:01N 38°17' W 009°27'1020.3
2017-Sep-21 17:31N 38°27' W 009°25'918.2
2017-Sep-21 17:00N 38°36' W 009°23'917.1
2017-Sep-21 16:30N 38°41' W 009°15'611.5
2017-Sep-21 16:00N 38°42' W 009°07'0 0.6
2017-Sep-21 15:30N 38°43' W 009°08'0 0.0
2017-Sep-21 15:00N 38°43' W 009°08'0 0.0
2017-Sep-21 14:30N 38°43' W 009°08'0 0.0
2017-Sep-21 14:00N 38°43' W 009°08'0 0.0
2017-Sep-21 13:30N 38°43' W 009°08'0 0.0
2017-Sep-21 13:00N 38°43' W 009°08'0 0.0
2017-Sep-21 12:30N 38°43' W 009°08'0 0.0
2017-Sep-21 12:00N 38°43' W 009°08'0 0.0
2017-Sep-21 11:30N 38°43' W 009°08'0 0.0
2017-Sep-21 11:00N 38°43' W 009°08'0 0.0
2017-Sep-21 10:30N 38°43' W 009°08'0 0.0
2017-Sep-21 10:00N 38°43' W 009°08'0 0.0
2017-Sep-21 09:27N 38°43' W 009°08'0 0.0
2017-Sep-21 09:00N 38°43' W 009°08'0 0.0
2017-Sep-21 08:30N 38°43' W 009°08'0 0.0
2017-Sep-21 08:00N 38°43' W 009°08'0 0.0
2017-Sep-21 07:30N 38°43' W 009°08'0 0.0
2017-Sep-21 07:00N 38°43' W 009°08'0 0.3
2017-Sep-21 06:30N 38°42' W 009°08'4 8.4
2017-Sep-21 06:00N 38°41' W 009°13'4 7.6
2017-Sep-21 05:31N 38°41' W 009°18'612.2
2017-Sep-21 05:00N 38°37' W 009°24'713.7
2017-Sep-21 04:30N 38°36' W 009°32'713.1
2017-Sep-21 04:00N 38°37' W 009°41'713.5
2017-Sep-21 03:30N 38°44' W 009°42'714.2
2017-Sep-21 03:00N 38°51' W 009°43'713.9
2017-Sep-21 02:30N 38°57' W 009°44'713.9
2017-Sep-21 02:00N 39°04' W 009°45'714.1
2017-Sep-21 01:30N 39°11' W 009°47'713.6
2017-Sep-21 01:00N 39°18' W 009°46'713.8
2017-Sep-21 00:30N 39°24' W 009°43'714.4
2017-Sep-21 00:00N 39°32' W 009°42'715.0
2017-Sep-20 23:31N 39°39' W 009°40'4414.4
2017-Sep-20 20:26N 40°20' W 009°18'1119.3
2017-Sep-20 19:54N 40°30' W 009°13'719.2
2017-Sep-20 19:30N 40°36' W 009°09'25 1.7
2017-Sep-20 04:23N 41°01' W 009°06'89 2.8
2017-Sep-18 20:13N 39°38' W 009°47'418.9
2017-Sep-18 19:59N 39°34' W 009°49'918.6
2017-Sep-18 19:30N 39°25' W 009°51'918.8
2017-Sep-18 19:00N 39°16' W 009°51'919.0
2017-Sep-18 18:30N 39°07' W 009°50'919.0
2017-Sep-18 18:00N 38°57' W 009°49'918.3
2017-Sep-18 17:30N 38°48' W 009°50'918.2
2017-Sep-18 17:00N 38°39' W 009°49'918.4
2017-Sep-18 16:31N 38°31' W 009°44'918.3
2017-Sep-18 16:00N 38°22' W 009°43'918.7
2017-Sep-18 15:30N 38°13' W 009°38'918.5
2017-Sep-18 15:00N 38°04' W 009°36'918.2
2017-Sep-18 14:30N 37°55' W 009°33'918.3
2017-Sep-18 14:00N 37°46' W 009°31'5118.5
2017-Sep-18 11:16N 36°56' W 009°19'518.8
2017-Sep-18 11:00N 36°52' W 009°16'1018.7
2017-Sep-18 10:27N 36°45' W 009°06'919.1
2017-Sep-18 09:59N 36°42' W 008°55'918.9
2017-Sep-18 09:30N 36°40' W 008°45'1019.1
2017-Sep-18 09:00N 36°36' W 008°33'2219.0
2017-Sep-18 07:49N 36°30' W 008°06'919.2
2017-Sep-18 07:20N 36°28' W 007°55'11418.4
2017-Sep-18 01:09N 35°58' W 005°39'318.2
2017-Sep-18 01:00N 35°59' W 005°36'917.3
2017-Sep-18 00:30N 36°01' W 005°26'816.9
2017-Sep-18 00:00N 36°05' W 005°16'918.6
2017-Sep-17 23:30N 36°10' W 005°06'215 6.7
2017-Sep-16 15:16N 37°35' W 000°59'1 1.8
2017-Sep-16 14:59N 37°36' W 000°59'0 0.0
2017-Sep-16 05:29N 37°36' W 000°59'2 3.8
2017-Sep-16 05:00N 37°34' W 000°60'611.9
2017-Sep-16 04:30N 37°30' W 000°54'612.8
2017-Sep-16 04:00N 37°31' W 000°46'713.2
2017-Sep-16 03:31N 37°33' W 000°38'612.6
2017-Sep-16 03:00N 37°37' W 000°32'713.3
2017-Sep-16 02:30N 37°42' W 000°28'612.9
2017-Sep-16 02:00N 37°48' W 000°24'612.7
2017-Sep-16 01:30N 37°53' W 000°19'612.7
2017-Sep-16 01:00N 37°58' W 000°15'141 5.6
2017-Sep-14 23:39N 40°10' E 000°49'315.2
2017-Sep-14 23:27N 40°12' E 000°53'715.1
2017-Sep-14 23:00N 40°16' E 000°60'715.0
2017-Sep-14 22:30N 40°20' E 001°08'814.9
2017-Sep-14 22:00N 40°25' E 001°16'715.0
2017-Sep-14 21:30N 40°30' E 001°22'815.1
2017-Sep-14 21:00N 40°35' E 001°30'715.0
2017-Sep-14 20:30N 40°40' E 001°37'815.2
2017-Sep-14 20:00N 40°46' E 001°43'815.5
2017-Sep-14 19:30N 40°52' E 001°49'815.3
2017-Sep-14 19:00N 40°58' E 001°56'715.0
2017-Sep-14 18:30N 41°05' E 002°01'714.8
2017-Sep-14 18:00N 41°10' E 002°07'813.7
2017-Sep-14 17:28N 41°17' E 002°11'4 0.4
2017-Sep-14 07:49N 41°22' E 002°11'0 0.6
2017-Sep-14 07:28N 41°22' E 002°11'4 7.5
2017-Sep-14 07:00N 41°18' E 002°11'612.4
2017-Sep-14 06:30N 41°17' E 002°19'1019.2
2017-Sep-14 06:00N 41°21' E 002°30'1120.8
2017-Sep-14 05:27N 41°26' E 002°44'920.6
2017-Sep-14 05:00N 41°29' E 002°56'5418.9
2017-Sep-14 02:10N 41°52' E 004°01'319.0
2017-Sep-14 01:59N 41°54' E 004°05'918.3
2017-Sep-14 01:30N 41°58' E 004°16'5718.5
2017-Sep-13 22:23N 42°22' E 005°26'818.7
2017-Sep-13 21:59N 42°25' E 005°35'1618.9
2017-Sep-13 21:06N 42°32' E 005°56'419.2
2017-Sep-13 20:55N 42°34' E 006°00'919.2
2017-Sep-13 20:28N 42°37' E 006°11'1119.3
2017-Sep-13 19:55N 42°42' E 006°24'1519.2
2017-Sep-13 19:07N 42°50' E 006°42'219.5
2017-Sep-13 19:00N 42°51' E 006°44'1719.0
2017-Sep-13 18:08N 43°02' E 007°01'218.8
2017-Sep-13 18:00N 43°04' E 007°03'918.8
2017-Sep-13 17:30N 43°11' E 007°12'1019.2
2017-Sep-13 17:00N 43°17' E 007°22'1019.5
2017-Sep-13 16:30N 43°24' E 007°32'1019.4
2017-Sep-13 16:00N 43°31' E 007°39'1719.5
2017-Sep-13 15:09N 43°47' E 007°48'2 0.2
2017-Sep-13 04:25N 43°49' E 007°48'8 9.9
2017-Sep-13 03:34N 43°40' E 007°45'614.5
2017-Sep-13 03:11N 43°35' E 007°43'513.8
2017-Sep-13 02:49N 43°31' E 007°40'414.3
2017-Sep-13 02:30N 43°28' E 007°35'813.9
2017-Sep-13 01:57N 43°22' E 007°28'613.4
2017-Sep-13 01:31N 43°18' E 007°22'713.5
2017-Sep-13 01:01N 43°13' E 007°15'713.5
2017-Sep-13 00:30N 43°09' E 007°08'713.8
2017-Sep-13 00:00N 43°04' E 007°01'6012.1
2017-Sep-12 19:05N 42°58' E 005°40'513.1
2017-Sep-12 18:40N 43°00' E 005°33'313.2
2017-Sep-12 18:27N 43°02' E 005°30'613.1
2017-Sep-12 18:00N 43°04' E 005°22'612.2
2017-Sep-12 17:30N 43°09' E 005°18'612.5
2017-Sep-12 17:01N 43°15' E 005°18'5 9.5
2017-Sep-12 16:30N 43°20' E 005°19'1 0.1
2017-Sep-12 06:56N 43°21' E 005°20'0 0.8
2017-Sep-12 06:26N 43°21' E 005°20'3 7.7
2017-Sep-12 06:00N 43°19' E 005°15'714.8
2017-Sep-12 05:30N 43°14' E 005°08'816.4
2017-Sep-12 05:00N 43°07' E 005°02'816.4
2017-Sep-12 04:31N 43°01' E 004°56'816.1
2017-Sep-12 04:01N 42°54' E 004°49'816.3
2017-Sep-12 03:30N 42°48' E 004°42'815.9
2017-Sep-12 03:01N 42°43' E 004°34'917.8
2017-Sep-12 02:31N 42°36' E 004°27'  

Dump ship's entire track history